createdAt,value
2023-10-30T00:00:33.216Z,26.10
2023-10-30T00:01:35.556Z,22.70
2023-10-30T00:02:38.623Z,22.30
2023-10-30T00:03:41.161Z,27.60
2023-10-30T00:04:43.425Z,22.40
2023-10-30T00:05:45.618Z,23.30
2023-10-30T00:06:47.985Z,22.10
2023-10-30T00:07:50.141Z,20.50
2023-10-30T00:08:52.392Z,23.30
2023-10-30T00:09:54.987Z,23.90
2023-10-30T00:10:57.236Z,20.90
2023-10-30T00:11:59.378Z,23.00
2023-10-30T00:13:01.550Z,21.50
2023-10-30T00:14:04.135Z,21.20
2023-10-30T00:15:07.246Z,20.70
2023-10-30T00:16:10.772Z,23.70
2023-10-30T00:17:13.042Z,20.36
2023-10-30T00:18:15.266Z,20.00
2023-10-30T00:19:17.760Z,22.40
2023-10-30T00:20:20.028Z,23.30
2023-10-30T00:21:22.189Z,21.90
2023-10-30T00:22:24.294Z,25.20
2023-10-30T00:23:26.287Z,26.67
2023-10-30T00:24:28.471Z,25.10
2023-10-30T00:25:30.591Z,22.90
2023-10-30T00:26:33.088Z,20.20
2023-10-30T00:27:35.266Z,19.90
2023-10-30T00:28:37.552Z,21.00
2023-10-30T00:29:39.717Z,20.50
2023-10-30T00:30:42.024Z,20.80
2023-10-30T00:31:44.267Z,20.90
2023-10-30T00:32:46.419Z,20.40
2023-10-30T00:33:48.576Z,21.60
2023-10-30T00:34:50.953Z,20.00
2023-10-30T00:35:53.099Z,18.40
2023-10-30T00:36:55.456Z,21.00
2023-10-30T00:37:57.682Z,21.30
2023-10-30T00:38:59.885Z,20.50
2023-10-30T00:40:02.407Z,20.40
2023-10-30T00:41:08.188Z,18.50
2023-10-30T00:42:10.340Z,23.60
2023-10-30T00:43:12.365Z,21.60
2023-10-30T00:44:14.496Z,19.70
2023-10-30T00:45:16.641Z,20.30
2023-10-30T00:46:18.965Z,17.30
2023-10-30T00:47:21.115Z,20.60
2023-10-30T00:48:23.249Z,21.50
2023-10-30T00:49:25.337Z,23.70
2023-10-30T00:50:28.796Z,21.70
2023-10-30T00:51:30.995Z,24.10
2023-10-30T00:52:33.158Z,20.70
2023-10-30T00:53:35.316Z,20.70
2023-10-30T00:54:37.726Z,20.10
2023-10-30T00:55:39.868Z,20.30
2023-10-30T00:56:42.499Z,18.30
2023-10-30T00:57:44.752Z,20.80
2023-10-30T00:58:46.913Z,21.20
2023-10-30T00:59:49.533Z,21.00
2023-10-30T01:00:52.179Z,19.10
2023-10-30T01:01:54.313Z,16.90
2023-10-30T01:02:56.685Z,19.70
2023-10-30T01:03:59.351Z,20.30
2023-10-30T01:05:01.832Z,21.20
2023-10-30T01:06:05.415Z,20.70
2023-10-30T01:07:07.656Z,22.27
2023-10-30T01:08:09.914Z,19.50
2023-10-30T01:09:12.194Z,19.20
2023-10-30T01:10:15.970Z,17.30
2023-10-30T01:11:18.123Z,16.50
2023-10-30T01:12:20.655Z,20.20
2023-10-30T01:13:23.537Z,19.80
2023-10-30T01:14:26.343Z,19.09
2023-10-30T01:15:28.625Z,21.09
2023-10-30T01:16:30.994Z,19.90
2023-10-30T01:17:33.166Z,19.10
2023-10-30T01:18:35.694Z,16.40
2023-10-30T01:19:37.941Z,17.70
2023-10-30T01:20:40.377Z,18.40
2023-10-30T01:21:42.719Z,19.50
2023-10-30T01:22:44.986Z,17.70
2023-10-30T01:23:47.672Z,16.70
2023-10-30T01:24:49.769Z,21.70
2023-10-30T01:25:51.908Z,18.80
2023-10-30T01:26:54.169Z,21.00
2023-10-30T01:27:56.275Z,18.00
2023-10-30T01:28:58.597Z,16.40
2023-10-30T01:30:00.712Z,19.50
2023-10-30T01:31:03.172Z,20.40
2023-10-30T01:32:06.090Z,18.30
2023-10-30T01:33:08.444Z,20.91
2023-10-30T01:34:11.010Z,17.50
2023-10-30T01:35:13.339Z,19.20
2023-10-30T01:36:15.711Z,19.20
2023-10-30T01:37:18.209Z,18.70
2023-10-30T01:38:20.361Z,16.10
2023-10-30T01:39:22.650Z,19.90
2023-10-30T01:40:27.838Z,17.30
2023-10-30T01:41:29.267Z,18.90
2023-10-30T01:42:31.478Z,16.60
2023-10-30T01:43:34.025Z,24.40
2023-10-30T01:44:39.886Z,27.20
2023-10-30T01:45:42.137Z,28.20
2023-10-30T01:46:44.621Z,28.20
2023-10-30T01:47:46.972Z,27.50
2023-10-30T01:48:49.353Z,25.30
2023-10-30T01:49:53.216Z,17.90
2023-10-30T01:50:56.880Z,17.30
2023-10-30T01:51:59.067Z,16.80
2023-10-30T01:53:02.552Z,21.50
2023-10-30T01:54:05.425Z,20.50
2023-10-30T01:55:08.718Z,18.70
2023-10-30T01:56:12.814Z,22.60
2023-10-30T01:57:16.955Z,20.80
2023-10-30T01:58:19.381Z,22.50
2023-10-30T01:59:21.647Z,19.10
2023-10-30T02:00:24.278Z,20.60
2023-10-30T02:01:27.269Z,28.40
2023-10-30T02:02:30.136Z,75.80
2023-10-30T02:03:34.264Z,48.45
2023-10-30T02:04:37.756Z,51.80
2023-10-30T02:05:40.732Z,60.10
2023-10-30T02:06:43.595Z,45.00
2023-10-30T02:07:45.861Z,33.50
2023-10-30T02:08:48.652Z,28.40
2023-10-30T02:09:51.304Z,22.30
2023-10-30T02:10:54.078Z,16.90
2023-10-30T02:11:56.196Z,16.00
2023-10-30T02:12:58.402Z,16.40
2023-10-30T02:14:00.550Z,17.80
2023-10-30T02:15:03.012Z,16.00
2023-10-30T02:16:06.531Z,17.00
2023-10-30T02:17:08.829Z,26.80
2023-10-30T02:18:11.037Z,22.30
2023-10-30T02:19:16.965Z,25.40
2023-10-30T02:20:19.432Z,23.40
2023-10-30T02:21:21.606Z,27.40
2023-10-30T02:22:23.748Z,27.60
2023-10-30T02:23:25.903Z,18.30
2023-10-30T02:24:28.237Z,19.90
2023-10-30T02:25:32.027Z,35.10
2023-10-30T02:26:34.428Z,114.00
2023-10-30T02:27:36.574Z,86.70
2023-10-30T02:28:38.638Z,66.22
2023-10-30T02:29:40.997Z,55.20
2023-10-30T02:30:43.364Z,33.00
2023-10-30T02:31:46.116Z,30.60
2023-10-30T02:32:48.429Z,18.40
2023-10-30T02:33:50.728Z,16.10
2023-10-30T02:34:53.029Z,17.20
2023-10-30T02:35:55.106Z,16.10
2023-10-30T02:36:57.543Z,18.70
2023-10-30T02:37:59.590Z,14.70
2023-10-30T02:39:03.594Z,16.50
2023-10-30T02:40:07.599Z,17.10
2023-10-30T02:41:09.952Z,18.50
2023-10-30T02:42:12.221Z,15.10
2023-10-30T02:43:14.329Z,17.50
2023-10-30T02:44:16.425Z,18.10
2023-10-30T02:45:18.580Z,15.70
2023-10-30T02:46:20.994Z,13.80
2023-10-30T02:47:23.311Z,15.80
2023-10-30T02:48:25.508Z,15.10
2023-10-30T02:49:28.029Z,17.10
2023-10-30T02:50:31.733Z,17.20
2023-10-30T02:51:33.942Z,16.40
2023-10-30T02:52:36.257Z,16.90
2023-10-30T02:53:39.837Z,16.80
2023-10-30T02:54:43.238Z,14.80
2023-10-30T02:55:45.508Z,17.00
2023-10-30T02:56:47.701Z,16.40
2023-10-30T02:57:49.904Z,16.90
2023-10-30T02:58:52.468Z,15.10
2023-10-30T02:59:54.624Z,17.00
2023-10-30T03:00:57.918Z,15.40
2023-10-30T03:02:00.169Z,17.40
2023-10-30T03:03:02.883Z,15.60
2023-10-30T03:04:05.945Z,16.50
2023-10-30T03:05:08.712Z,18.90
2023-10-30T03:06:11.516Z,15.70
2023-10-30T03:07:13.673Z,16.20
2023-10-30T03:08:15.841Z,19.20
2023-10-30T03:09:17.866Z,16.00
2023-10-30T03:10:20.104Z,16.00
2023-10-30T03:11:22.448Z,14.10
2023-10-30T03:12:24.635Z,14.60
2023-10-30T03:13:26.876Z,16.30
2023-10-30T03:14:28.871Z,18.10
2023-10-30T03:15:31.092Z,14.50
2023-10-30T03:16:33.798Z,16.00
2023-10-30T03:17:36.452Z,16.20
2023-10-30T03:18:38.911Z,14.90
2023-10-30T03:19:41.255Z,15.10
2023-10-30T03:20:43.615Z,16.80
2023-10-30T03:21:45.762Z,15.30
2023-10-30T03:22:47.931Z,14.20
2023-10-30T03:23:50.201Z,13.00
2023-10-30T03:24:52.557Z,18.10
2023-10-30T03:25:54.662Z,14.70
2023-10-30T03:26:57.144Z,18.70
2023-10-30T03:27:59.438Z,17.00
2023-10-30T03:29:01.694Z,12.80
2023-10-30T03:30:05.196Z,17.50
2023-10-30T03:31:08.890Z,19.50
2023-10-30T03:32:11.137Z,16.20
2023-10-30T03:33:13.419Z,17.20
2023-10-30T03:34:15.788Z,18.10
2023-10-30T03:35:18.527Z,18.73
2023-10-30T03:36:22.140Z,17.50
2023-10-30T03:37:24.484Z,18.50
2023-10-30T03:38:26.641Z,18.90
2023-10-30T03:39:28.749Z,20.78
2023-10-30T03:40:31.103Z,18.90
2023-10-30T03:41:33.321Z,19.50
2023-10-30T03:42:35.702Z,17.70
2023-10-30T03:43:38.043Z,22.40
2023-10-30T03:44:40.197Z,22.10
2023-10-30T03:45:42.512Z,22.50
2023-10-30T03:46:44.932Z,23.00
2023-10-30T03:47:47.204Z,25.20
2023-10-30T03:48:49.461Z,21.70
2023-10-30T03:49:51.665Z,21.80
2023-10-30T03:50:53.971Z,24.20
2023-10-30T03:51:56.120Z,19.50
2023-10-30T03:52:58.274Z,21.60
2023-10-30T03:54:00.434Z,20.70
2023-10-30T03:55:02.694Z,21.10
2023-10-30T03:56:06.086Z,21.80
2023-10-30T03:57:08.456Z,19.60
2023-10-30T03:58:10.805Z,19.50
2023-10-30T03:59:12.965Z,22.80
2023-10-30T04:00:15.871Z,18.50
2023-10-30T04:01:18.020Z,21.40
2023-10-30T04:02:20.152Z,16.50
2023-10-30T04:03:22.393Z,20.00
2023-10-30T04:04:24.659Z,18.80
2023-10-30T04:05:26.935Z,18.60
2023-10-30T04:06:29.527Z,19.40
2023-10-30T04:07:31.694Z,19.30
2023-10-30T04:08:33.808Z,19.20
2023-10-30T04:09:36.031Z,17.50
2023-10-30T04:10:38.335Z,15.20
2023-10-30T04:11:40.595Z,19.80
2023-10-30T04:12:42.802Z,17.50
2023-10-30T04:13:45.247Z,19.90
2023-10-30T04:14:47.367Z,18.50
2023-10-30T04:15:49.549Z,19.00
2023-10-30T04:16:52.106Z,20.40
2023-10-30T04:17:54.394Z,20.40
2023-10-30T04:18:56.623Z,23.90
2023-10-30T04:19:58.777Z,20.20
2023-10-30T04:21:01.523Z,25.20
2023-10-30T04:22:03.716Z,25.00
2023-10-30T04:23:05.927Z,21.60
2023-10-30T04:24:08.834Z,23.00
2023-10-30T04:25:11.195Z,22.90
2023-10-30T04:26:13.367Z,20.56
2023-10-30T04:27:15.512Z,12.30
2023-10-30T04:28:17.686Z,19.60
2023-10-30T04:29:19.931Z,19.20
2023-10-30T04:30:22.215Z,22.90
2023-10-30T04:31:24.415Z,20.60
2023-10-30T04:32:26.793Z,22.70
2023-10-30T04:33:29.104Z,24.50
2023-10-30T04:34:31.338Z,25.90
2023-10-30T04:35:33.503Z,24.20
2023-10-30T04:36:35.799Z,21.70
2023-10-30T04:37:38.022Z,20.00
2023-10-30T04:38:40.023Z,22.60
2023-10-30T04:39:42.138Z,20.60
2023-10-30T04:40:44.580Z,20.70
2023-10-30T04:41:46.841Z,20.20
2023-10-30T04:42:49.022Z,21.60
2023-10-30T04:43:51.272Z,20.40
2023-10-30T04:44:53.622Z,21.20
2023-10-30T04:45:55.761Z,21.60
2023-10-30T04:46:58.253Z,25.40
2023-10-30T04:48:00.497Z,27.70
2023-10-30T04:49:02.566Z,23.50
2023-10-30T04:50:05.820Z,20.10
2023-10-30T04:51:07.987Z,21.27
2023-10-30T04:52:10.140Z,22.89
2023-10-30T04:53:12.219Z,23.20
2023-10-30T04:54:14.977Z,22.22
2023-10-30T04:55:17.221Z,20.27
2023-10-30T04:56:19.496Z,21.90
2023-10-30T04:57:21.604Z,17.90
2023-10-30T04:58:23.654Z,20.30
2023-10-30T04:59:25.930Z,16.90
2023-10-30T05:00:28.403Z,19.00
2023-10-30T05:01:30.630Z,18.60
2023-10-30T05:02:32.847Z,15.90
2023-10-30T05:03:38.220Z,19.20
2023-10-30T05:04:40.527Z,18.70
2023-10-30T05:05:42.735Z,17.40
2023-10-30T05:06:45.268Z,18.30
2023-10-30T05:07:48.468Z,18.10
2023-10-30T05:08:50.924Z,21.20
2023-10-30T05:09:53.122Z,19.20
2023-10-30T05:10:55.445Z,22.20
2023-10-30T05:11:57.550Z,20.90
2023-10-30T05:12:59.753Z,22.00
2023-10-30T05:14:01.911Z,19.70
2023-10-30T05:16:14.723Z,25.70
2023-10-30T05:17:16.801Z,25.10
2023-10-30T05:18:19.048Z,24.30
2023-10-30T05:19:21.130Z,26.30
2023-10-30T05:20:23.426Z,30.70
2023-10-30T05:21:25.584Z,32.70
2023-10-30T05:22:27.657Z,32.60
2023-10-30T05:23:29.782Z,30.30
2023-10-30T05:24:31.986Z,27.90
2023-10-30T05:25:42.541Z,23.20
2023-10-30T05:26:39.225Z,23.70
2023-10-30T05:27:41.582Z,20.20
2023-10-30T05:28:43.757Z,19.80
2023-10-30T05:29:45.876Z,20.10
2023-10-30T05:30:48.157Z,20.50
2023-10-30T05:31:50.379Z,22.90
2023-10-30T05:32:52.768Z,20.80
2023-10-30T05:33:54.993Z,21.40
2023-10-30T05:34:57.174Z,18.70
2023-10-30T05:35:59.306Z,19.90
2023-10-30T05:37:01.675Z,22.00
2023-10-30T05:38:03.829Z,22.00
2023-10-30T05:39:05.985Z,22.50
2023-10-30T05:40:12.685Z,22.80
2023-10-30T05:41:14.886Z,23.10
2023-10-30T05:42:17.166Z,23.90
2023-10-30T05:43:19.325Z,19.80
2023-10-30T05:44:21.489Z,18.40
2023-10-30T05:45:23.658Z,16.90
2023-10-30T05:46:26.040Z,21.90
2023-10-30T05:47:28.502Z,21.20
2023-10-30T05:48:30.901Z,19.90
2023-10-30T05:49:33.039Z,17.90
2023-10-30T05:50:35.352Z,17.70
2023-10-30T05:51:37.545Z,15.30
2023-10-30T05:52:39.699Z,22.20
2023-10-30T05:53:42.504Z,21.00
2023-10-30T05:54:44.671Z,21.20
2023-10-30T05:55:46.969Z,19.70
2023-10-30T05:56:49.648Z,19.60
2023-10-30T05:57:51.832Z,18.60
2023-10-30T05:58:53.984Z,15.40
2023-10-30T05:59:56.175Z,15.78
2023-10-30T06:00:58.465Z,20.00
2023-10-30T06:02:00.856Z,18.00
2023-10-30T06:03:03.003Z,24.40
2023-10-30T06:04:05.619Z,25.30
2023-10-30T06:05:08.807Z,20.00
2023-10-30T06:06:11.501Z,18.70
2023-10-30T06:07:13.768Z,21.50
2023-10-30T06:08:15.881Z,18.90
2023-10-30T06:09:18.089Z,18.10
2023-10-30T06:10:20.916Z,15.60
2023-10-30T06:11:23.410Z,16.73
2023-10-30T06:12:25.630Z,32.80
2023-10-30T06:13:27.838Z,37.50
2023-10-30T06:14:29.995Z,46.90
2023-10-30T06:15:32.399Z,56.33
2023-10-30T06:16:34.771Z,55.40
2023-10-30T06:17:36.959Z,57.50
2023-10-30T06:18:39.119Z,53.40
2023-10-30T06:19:41.440Z,38.30
2023-10-30T06:20:45.625Z,26.70
2023-10-30T06:21:47.792Z,21.60
2023-10-30T06:22:49.925Z,17.10
2023-10-30T06:23:51.977Z,18.20
2023-10-30T06:24:54.082Z,18.60
2023-10-30T06:25:56.280Z,18.90
2023-10-30T06:26:58.852Z,15.10
2023-10-30T06:28:01.005Z,16.70
2023-10-30T06:29:03.129Z,16.80
2023-10-30T06:30:07.687Z,11.80
2023-10-30T06:31:19.905Z,12.00
2023-10-30T06:32:22.154Z,12.90
2023-10-30T06:33:25.122Z,12.90
2023-10-30T06:34:27.367Z,14.60
2023-10-30T06:35:29.747Z,14.50
2023-10-30T06:36:33.062Z,12.50
2023-10-30T06:37:35.329Z,12.50
2023-10-30T06:38:37.976Z,13.60
2023-10-30T06:39:40.112Z,14.90
2023-10-30T06:40:42.561Z,14.30
2023-10-30T06:41:44.723Z,10.40
2023-10-30T06:42:47.122Z,13.40
2023-10-30T06:43:49.450Z,14.50
2023-10-30T06:44:51.701Z,15.70
2023-10-30T06:46:04.586Z,16.60
2023-10-30T06:47:06.880Z,13.40
2023-10-30T06:48:09.087Z,13.20
2023-10-30T06:49:11.388Z,22.30
2023-10-30T06:50:13.938Z,39.20
2023-10-30T06:51:16.355Z,54.70
2023-10-30T06:52:18.652Z,53.00
2023-10-30T06:53:20.785Z,11.40
2023-10-30T06:54:22.948Z,20.20
2023-10-30T06:56:35.625Z,15.10
2023-10-30T06:57:37.846Z,12.10
2023-10-30T06:58:39.820Z,15.40
2023-10-30T06:59:41.913Z,15.50
2023-10-30T07:00:45.269Z,13.90
2023-10-30T07:01:47.630Z,12.20
2023-10-30T07:02:49.739Z,13.30
2023-10-30T07:03:52.000Z,13.80
2023-10-30T07:04:54.175Z,14.30
2023-10-30T07:05:56.370Z,14.30
2023-10-30T07:06:58.793Z,14.70
2023-10-30T07:08:00.890Z,12.30
2023-10-30T07:09:03.215Z,12.20
2023-10-30T07:10:07.104Z,14.27
2023-10-30T07:11:09.401Z,22.00
2023-10-30T07:12:12.441Z,22.40
2023-10-30T07:13:14.584Z,29.91
2023-10-30T07:14:16.787Z,29.20
2023-10-30T07:15:19.084Z,30.00
2023-10-30T07:16:21.982Z,27.82
2023-10-30T07:17:24.348Z,23.50
2023-10-30T07:18:26.664Z,21.90
2023-10-30T07:19:28.912Z,16.80
2023-10-30T07:20:31.315Z,15.60
2023-10-30T07:21:33.558Z,17.20
2023-10-30T07:22:35.899Z,15.90
2023-10-30T07:23:38.271Z,16.00
2023-10-30T07:24:40.578Z,14.70
2023-10-30T07:25:42.652Z,14.00
2023-10-30T07:26:44.857Z,14.30
2023-10-30T07:27:47.087Z,11.50
2023-10-30T07:28:49.691Z,14.50
2023-10-30T07:29:51.967Z,14.20
2023-10-30T07:30:54.552Z,14.90
2023-10-30T07:31:56.904Z,13.40
2023-10-30T07:32:58.925Z,9.70
2023-10-30T07:34:01.089Z,12.10
2023-10-30T07:35:04.562Z,13.00
2023-10-30T07:36:07.416Z,11.80
2023-10-30T07:37:09.655Z,14.20
2023-10-30T07:38:12.018Z,13.80
2023-10-30T07:39:14.507Z,16.20
2023-10-30T07:40:17.071Z,10.09
2023-10-30T07:41:19.372Z,11.10
2023-10-30T07:42:21.733Z,17.70
2023-10-30T07:43:24.191Z,20.40
2023-10-30T07:44:26.431Z,14.40
2023-10-30T07:45:28.705Z,16.40
2023-10-30T07:46:31.133Z,15.90
2023-10-30T07:47:43.872Z,10.90
2023-10-30T07:48:37.445Z,12.40
2023-10-30T07:49:39.653Z,12.30
2023-10-30T07:50:42.572Z,11.40
2023-10-30T07:51:44.870Z,14.30
2023-10-30T07:52:47.138Z,12.50
2023-10-30T07:53:49.307Z,9.70
2023-10-30T07:54:51.662Z,15.10
2023-10-30T07:55:54.030Z,18.80
2023-10-30T07:58:06.332Z,22.50
2023-10-30T07:59:08.440Z,22.70
2023-10-30T08:00:11.797Z,17.60
2023-10-30T08:01:20.038Z,13.10
2023-10-30T08:02:22.445Z,15.00
2023-10-30T08:03:24.713Z,16.90
2023-10-30T08:04:27.174Z,12.90
2023-10-30T08:05:29.409Z,14.60
2023-10-30T08:06:31.694Z,14.00
2023-10-30T08:07:34.021Z,15.70
2023-10-30T08:08:36.200Z,21.80
2023-10-30T08:09:38.446Z,15.90
2023-10-30T08:10:40.718Z,22.30
2023-10-30T08:11:43.095Z,24.00
2023-10-30T08:12:47.062Z,23.00
2023-10-30T08:13:54.959Z,13.90
2023-10-30T08:14:57.222Z,13.10
2023-10-30T08:15:59.405Z,11.50
2023-10-30T08:17:01.636Z,6.70
2023-10-30T08:18:04.173Z,11.90
2023-10-30T08:19:06.503Z,10.80
2023-10-30T08:20:10.399Z,12.10
2023-10-30T08:21:13.174Z,11.40
2023-10-30T08:22:18.322Z,16.18
2023-10-30T08:23:20.548Z,13.40
2023-10-30T08:24:22.671Z,12.30
2023-10-30T08:25:24.789Z,12.80
2023-10-30T08:26:27.107Z,13.20
2023-10-30T08:27:30.059Z,16.20
2023-10-30T08:28:32.980Z,18.50
2023-10-30T08:29:35.201Z,19.82
2023-10-30T08:30:37.614Z,19.00
2023-10-30T08:31:39.833Z,14.80
2023-10-30T08:32:42.099Z,12.50
2023-10-30T08:33:47.737Z,11.70
2023-10-30T08:34:50.093Z,11.90
2023-10-30T08:35:53.961Z,11.50
2023-10-30T08:36:56.435Z,13.90
2023-10-30T08:37:59.758Z,11.20
2023-10-30T08:39:01.952Z,14.70
2023-10-30T08:40:05.032Z,14.20
2023-10-30T08:41:11.147Z,17.70
2023-10-30T08:42:13.389Z,14.10
2023-10-30T08:43:15.675Z,14.20
2023-10-30T08:44:17.859Z,15.40
2023-10-30T08:45:19.967Z,10.40
2023-10-30T08:46:22.573Z,11.90
2023-10-30T08:47:24.984Z,12.50
2023-10-30T08:48:27.338Z,11.50
2023-10-30T08:49:29.556Z,11.30
2023-10-30T08:50:31.994Z,12.10
2023-10-30T08:51:53.238Z,15.90
2023-10-30T08:52:46.254Z,16.00
2023-10-30T08:53:48.531Z,13.70
2023-10-30T08:54:50.749Z,10.70
2023-10-30T08:55:53.012Z,11.10
2023-10-30T08:57:04.235Z,12.70
2023-10-30T08:57:59.397Z,10.80
2023-10-30T08:59:01.762Z,10.30
2023-10-30T09:00:04.617Z,9.70
2023-10-30T09:01:06.792Z,12.10
2023-10-30T09:02:08.937Z,14.20
2023-10-30T09:03:11.159Z,9.90
2023-10-30T09:04:13.638Z,13.20
2023-10-30T09:05:16.109Z,12.20
2023-10-30T09:06:19.345Z,12.80
2023-10-30T09:07:21.610Z,14.64
2023-10-30T09:08:24.959Z,21.67
2023-10-30T09:09:27.819Z,27.80
2023-10-30T09:10:30.193Z,22.70
2023-10-30T09:11:32.332Z,19.60
2023-10-30T09:12:34.763Z,15.80
2023-10-30T09:13:37.112Z,14.50
2023-10-30T09:14:42.417Z,12.90
2023-10-30T09:15:44.749Z,14.50
2023-10-30T09:16:46.999Z,15.00
2023-10-30T09:17:49.189Z,11.60
2023-10-30T09:18:51.310Z,12.40
2023-10-30T09:19:53.468Z,13.40
2023-10-30T09:20:55.791Z,12.60
2023-10-30T09:21:57.884Z,12.10
2023-10-30T09:22:59.996Z,10.60
2023-10-30T09:24:02.173Z,12.33
2023-10-30T09:25:04.826Z,15.70
2023-10-30T09:26:07.386Z,16.30
2023-10-30T09:27:09.534Z,12.30
2023-10-30T09:28:11.995Z,12.70
2023-10-30T09:29:14.037Z,12.50
2023-10-30T09:30:17.474Z,10.90
2023-10-30T09:31:19.847Z,11.00
2023-10-30T09:32:22.069Z,15.40
2023-10-30T09:33:24.269Z,10.70
2023-10-30T09:34:26.463Z,12.30
2023-10-30T09:35:28.995Z,12.60
2023-10-30T09:36:31.319Z,14.60
2023-10-30T09:37:33.579Z,10.70
2023-10-30T09:38:35.846Z,11.20
2023-10-30T09:39:37.972Z,11.10
2023-10-30T09:40:40.591Z,18.10
2023-10-30T09:41:45.050Z,17.80
2023-10-30T09:43:07.540Z,15.30
2023-10-30T09:44:10.379Z,13.10
2023-10-30T09:45:14.542Z,12.40
2023-10-30T09:46:17.543Z,21.90
2023-10-30T09:47:21.996Z,16.90
2023-10-30T09:48:25.743Z,13.60
2023-10-30T09:49:29.368Z,12.60
2023-10-30T09:50:32.226Z,16.00
2023-10-30T09:51:35.144Z,22.50
2023-10-30T09:52:37.698Z,14.10
2023-10-30T09:53:40.041Z,14.00
2023-10-30T09:54:43.080Z,19.00
2023-10-30T09:55:46.581Z,12.90
2023-10-30T09:56:49.858Z,13.40
2023-10-30T09:57:52.974Z,36.10
2023-10-30T09:58:55.269Z,26.70
2023-10-30T09:59:57.825Z,22.70
2023-10-30T10:01:00.399Z,18.80
2023-10-30T10:02:02.950Z,24.50
2023-10-30T10:03:05.533Z,14.55
2023-10-30T10:04:07.827Z,13.30
2023-10-30T10:05:10.894Z,11.90
2023-10-30T10:06:13.745Z,13.00
2023-10-30T10:07:16.139Z,10.50
2023-10-30T10:08:18.523Z,14.60
2023-10-30T10:09:21.560Z,12.60
2023-10-30T10:10:24.438Z,9.70
2023-10-30T10:11:32.775Z,8.90
2023-10-30T10:12:35.811Z,16.40
2023-10-30T10:13:42.189Z,13.20
2023-10-30T10:14:43.044Z,10.80
2023-10-30T10:15:45.932Z,21.40
2023-10-30T10:16:48.583Z,23.10
2023-10-30T10:17:50.778Z,13.40
2023-10-30T10:18:53.018Z,17.70
2023-10-30T10:19:55.143Z,17.33
2023-10-30T10:20:59.369Z,17.40
2023-10-30T10:22:01.802Z,21.30
2023-10-30T10:23:03.999Z,14.20
2023-10-30T10:24:06.752Z,12.60
2023-10-30T10:25:09.481Z,20.91
2023-10-30T10:26:11.668Z,16.40
2023-10-30T10:27:13.854Z,12.60
2023-10-30T10:28:16.014Z,11.50
2023-10-30T10:29:23.576Z,13.80
2023-10-30T10:30:25.954Z,15.10
2023-10-30T10:31:28.428Z,11.80
2023-10-30T10:32:30.630Z,11.00
2023-10-30T10:33:35.427Z,18.70
2023-10-30T10:34:38.454Z,15.50
2023-10-30T10:35:43.684Z,11.20
2023-10-30T10:36:47.338Z,18.90
2023-10-30T10:37:49.876Z,12.20
2023-10-30T10:38:58.490Z,11.00
2023-10-30T10:40:00.784Z,6.50
2023-10-30T10:41:04.531Z,10.00
2023-10-30T10:42:07.612Z,10.10
2023-10-30T10:43:10.244Z,11.60
2023-10-30T10:44:12.594Z,11.30
2023-10-30T10:45:15.480Z,9.20
2023-10-30T10:46:17.838Z,10.27
2023-10-30T10:47:21.588Z,8.10
2023-10-30T10:48:26.041Z,12.70
2023-10-30T10:49:28.318Z,11.00
2023-10-30T10:50:30.462Z,9.20
2023-10-30T10:51:35.156Z,6.80
2023-10-30T10:52:38.082Z,7.30
2023-10-30T10:53:40.552Z,6.10
2023-10-30T10:54:48.955Z,9.80
2023-10-30T10:55:51.358Z,9.50
2023-10-30T10:56:54.013Z,7.30
2023-10-30T10:58:16.720Z,7.20
2023-10-30T10:59:22.330Z,9.10
2023-10-30T11:00:27.742Z,9.60
2023-10-30T11:01:33.178Z,9.70
2023-10-30T11:02:37.807Z,10.80
2023-10-30T11:03:40.408Z,3.70
2023-10-30T11:04:42.958Z,7.90
2023-10-30T11:05:47.952Z,9.50
2023-10-30T11:06:53.890Z,10.30
2023-10-30T11:09:17.986Z,12.90
2023-10-30T11:11:54.124Z,10.90
2023-10-30T11:13:12.045Z,11.50
2023-10-30T11:14:39.351Z,9.70
2023-10-30T11:17:01.525Z,9.90
2023-10-30T11:18:20.929Z,9.40
2023-10-30T11:19:23.262Z,8.90
2023-10-30T11:20:27.613Z,8.10
2023-10-30T11:21:29.858Z,8.50
2023-10-30T11:22:41.157Z,5.70
2023-10-30T11:23:59.843Z,8.80
2023-10-30T11:25:01.960Z,10.90
2023-10-30T11:26:04.437Z,8.90
2023-10-30T11:27:27.049Z,9.10
2023-10-30T11:28:29.338Z,8.50
2023-10-30T11:29:53.655Z,9.00
2023-10-30T11:30:55.865Z,9.10
2023-10-30T11:32:04.806Z,7.50
2023-10-30T11:33:18.471Z,10.10
2023-10-30T11:34:31.780Z,9.20
2023-10-30T11:35:33.873Z,9.00
2023-10-30T11:36:35.956Z,8.00
2023-10-30T11:37:40.216Z,7.30
2023-10-30T11:38:56.666Z,9.00
2023-10-30T11:39:59.784Z,7.90
2023-10-30T11:41:09.958Z,7.70
2023-10-30T11:42:26.773Z,8.00
2023-10-30T11:43:35.246Z,8.40
2023-10-30T11:44:37.414Z,7.50
2023-10-30T11:45:40.182Z,9.10
2023-10-30T11:46:44.320Z,8.91
2023-10-30T11:47:49.240Z,9.00
2023-10-30T11:48:51.608Z,6.20
2023-10-30T11:49:56.457Z,7.80
2023-10-30T11:50:58.756Z,7.00
2023-10-30T11:52:04.744Z,8.30
2023-10-30T11:53:08.584Z,6.10
2023-10-30T11:54:11.099Z,7.10
2023-10-30T11:55:13.256Z,6.60
2023-10-30T11:56:15.498Z,5.80
2023-10-30T11:57:18.000Z,5.70
2023-10-30T11:58:20.687Z,7.00
2023-10-30T11:59:22.737Z,7.50
2023-10-30T12:00:25.035Z,8.40
2023-10-30T12:01:27.186Z,8.90
2023-10-30T12:02:29.280Z,7.50
2023-10-30T12:03:31.400Z,10.40
2023-10-30T12:04:34.020Z,11.90
2023-10-30T12:05:36.291Z,22.30
2023-10-30T12:06:38.445Z,16.90
2023-10-30T12:07:40.602Z,18.10
2023-10-30T12:08:43.102Z,14.30
2023-10-30T12:09:45.279Z,10.30
2023-10-30T12:10:47.718Z,8.50
2023-10-30T12:11:49.885Z,7.90
2023-10-30T12:12:52.048Z,9.10
2023-10-30T12:13:55.545Z,16.40
2023-10-30T12:15:01.182Z,13.50
2023-10-30T12:16:04.039Z,12.10
2023-10-30T12:17:06.533Z,7.10
2023-10-30T12:18:10.662Z,7.50
2023-10-30T12:19:12.784Z,5.80
2023-10-30T12:20:15.214Z,5.30
2023-10-30T12:21:17.474Z,4.10
2023-10-30T12:22:19.956Z,5.80
2023-10-30T12:23:22.048Z,5.90
2023-10-30T12:24:24.234Z,6.10
2023-10-30T12:25:26.389Z,6.00
2023-10-30T12:26:28.631Z,5.60
2023-10-30T12:27:30.859Z,6.60
2023-10-30T12:28:37.016Z,5.20
2023-10-30T12:29:39.100Z,6.40
2023-10-30T12:30:41.436Z,7.40
2023-10-30T12:31:43.805Z,6.90
2023-10-30T12:32:54.892Z,7.00
2023-10-30T12:35:22.833Z,8.60
2023-10-30T12:37:42.025Z,7.60
2023-10-30T12:38:47.881Z,6.80
2023-10-30T12:40:07.346Z,7.80
2023-10-30T12:41:09.553Z,7.00
2023-10-30T12:42:11.982Z,8.40
2023-10-30T12:43:14.271Z,10.70
2023-10-30T12:45:26.891Z,17.60
2023-10-30T12:46:29.147Z,13.10
2023-10-30T12:47:31.321Z,18.90
2023-10-30T12:48:36.274Z,12.10
2023-10-30T12:49:38.405Z,8.40
2023-10-30T12:50:40.592Z,8.60
2023-10-30T12:51:43.481Z,4.60
2023-10-30T12:52:45.913Z,6.00
2023-10-30T12:53:48.037Z,7.70
2023-10-30T12:54:50.304Z,0.70
2023-10-30T12:55:52.501Z,6.40
2023-10-30T12:56:54.804Z,7.00
2023-10-30T12:57:56.894Z,6.40
2023-10-30T12:58:59.398Z,8.80
2023-10-30T13:00:01.611Z,5.10
2023-10-30T13:02:07.974Z,10.00
2023-10-30T13:03:10.209Z,10.60
2023-10-30T13:04:12.681Z,13.80
2023-10-30T13:05:15.060Z,23.80
2023-10-30T13:06:17.412Z,26.30
2023-10-30T13:07:19.795Z,20.10
2023-10-30T13:08:21.921Z,17.50
2023-10-30T13:09:24.144Z,14.50
2023-10-30T13:10:27.823Z,11.40
2023-10-30T13:11:30.403Z,32.20
2023-10-30T13:12:32.517Z,14.10
2023-10-30T13:13:34.713Z,9.20
2023-10-30T13:14:36.824Z,6.80
2023-10-30T13:15:38.885Z,10.60
2023-10-30T13:16:41.118Z,33.70
2023-10-30T13:17:43.263Z,36.20
2023-10-30T13:18:45.255Z,16.50
2023-10-30T13:19:49.269Z,11.90
2023-10-30T13:20:51.453Z,10.70
2023-10-30T13:21:53.826Z,11.70
2023-10-30T13:22:56.070Z,8.60
2023-10-30T13:23:59.007Z,4.90
2023-10-30T13:25:03.779Z,6.80
2023-10-30T13:26:06.066Z,7.40
2023-10-30T13:27:08.171Z,6.90
2023-10-30T13:28:10.247Z,7.20
2023-10-30T13:29:12.338Z,6.70
2023-10-30T13:30:14.845Z,11.40
2023-10-30T13:31:17.020Z,19.60
2023-10-30T13:32:19.172Z,8.30
2023-10-30T13:33:21.426Z,7.20
2023-10-30T13:34:23.794Z,6.20
2023-10-30T13:35:26.119Z,6.60
2023-10-30T13:36:28.465Z,7.20
2023-10-30T13:37:30.485Z,7.50
2023-10-30T13:38:32.920Z,8.90
2023-10-30T13:39:35.089Z,7.70
2023-10-30T13:40:37.438Z,8.30
2023-10-30T13:41:39.523Z,6.90
2023-10-30T13:42:41.728Z,7.50
2023-10-30T13:43:43.799Z,7.20
2023-10-30T13:44:45.685Z,9.00
2023-10-30T13:45:47.745Z,7.22
2023-10-30T13:46:50.174Z,6.90
2023-10-30T13:47:52.469Z,15.40